createdAt,value
2023-03-01T00:02:02.546Z,86.6543
2023-03-01T00:07:02.662Z,86.73047
2023-03-01T00:12:02.604Z,86.9082
2023-03-01T00:17:02.708Z,86.92969
2023-03-01T00:22:02.615Z,86.95215
2023-03-01T00:27:02.603Z,86.74902
2023-03-01T00:32:05.755Z,86.78125
2023-03-01T00:37:05.785Z,86.77051
2023-03-01T00:42:02.589Z,86.86133
2023-03-01T00:47:05.242Z,86.65527
2023-03-01T00:52:02.925Z,86.8125
2023-03-01T00:57:02.597Z,86.93555
2023-03-01T01:02:02.846Z,86.86133
2023-03-01T01:07:02.570Z,86.83984
2023-03-01T01:12:02.448Z,86.85547
2023-03-01T01:17:05.312Z,86.87305
2023-03-01T01:22:04.788Z,86.82422
2023-03-01T01:27:02.493Z,86.83887
2023-03-01T01:32:02.609Z,86.83691
2023-03-01T01:37:05.679Z,86.91504
2023-03-01T01:42:02.604Z,86.85352
2023-03-01T01:47:05.542Z,86.61914
2023-03-01T01:52:06.893Z,86.74414
2023-03-01T01:57:05.313Z,86.65625
2023-03-01T02:02:04.369Z,86.66992
2023-03-01T02:07:04.902Z,86.64844
2023-03-01T02:12:04.296Z,86.70801
2023-03-01T02:17:02.910Z,86.75684
2023-03-01T02:22:07.240Z,86.48535
2023-03-01T02:27:03.626Z,86.57422
2023-03-01T02:32:07.117Z,86.6543
2023-03-01T02:37:05.486Z,86.71875
2023-03-01T02:42:02.727Z,86.69727
2023-03-01T02:47:06.805Z,86.75098
2023-03-01T02:52:13.890Z,86.64648
2023-03-01T02:57:02.504Z,86.67871
2023-03-01T03:02:02.675Z,86.50391
2023-03-01T03:07:02.723Z,86.73047
2023-03-01T03:12:02.529Z,86.60254
2023-03-01T03:17:07.374Z,86.5332
2023-03-01T03:22:02.585Z,86.46289
2023-03-01T03:27:02.432Z,86.37012
2023-03-01T03:32:13.430Z,86.33594
2023-03-01T03:37:04.140Z,86.47168
2023-03-01T03:42:02.505Z,86.35352
2023-03-01T03:47:02.535Z,86.45117
2023-03-01T03:52:02.544Z,86.27051
2023-03-01T03:57:02.459Z,86.44043
2023-03-01T04:02:02.534Z,86.58105
2023-03-01T04:07:07.147Z,86.5
2023-03-01T04:12:02.505Z,86.16016
2023-03-01T04:17:02.516Z,86.34082
2023-03-01T04:22:08.408Z,86.16211
2023-03-01T04:27:02.743Z,86.28516
2023-03-01T04:32:04.051Z,86.24121
2023-03-01T04:37:02.436Z,86.17383
2023-03-01T04:42:04.783Z,86.27637
2023-03-01T04:47:02.336Z,86.36523
2023-03-01T04:52:03.056Z,86.17578
2023-03-01T04:57:02.978Z,86.07422
2023-03-01T05:02:02.739Z,86.16992
2023-03-01T05:07:06.857Z,86.14355
2023-03-01T05:12:05.400Z,86.19922
2023-03-01T05:17:04.648Z,86.12305
2023-03-01T05:22:08.504Z,86.14258
2023-03-01T05:27:02.802Z,86.06348
2023-03-01T05:32:03.831Z,86.14551
2023-03-01T05:37:02.665Z,86.13965
2023-03-01T05:42:03.242Z,86.20215
2023-03-01T05:47:02.424Z,86.20508
2023-03-01T05:52:02.436Z,86.30078
2023-03-01T05:57:02.648Z,86.10547
2023-03-01T06:02:02.674Z,86.35156
2023-03-01T06:07:02.397Z,86.19434
2023-03-01T06:12:02.865Z,86.19629
2023-03-01T06:17:02.523Z,86.16406
2023-03-01T06:22:02.520Z,86.32813
2023-03-01T06:27:03.695Z,86.34766
2023-03-01T06:32:02.474Z,86.25488
2023-03-01T06:37:06.026Z,86.25879
2023-03-01T06:42:02.727Z,86.35156
2023-03-01T06:47:05.416Z,86.29297
2023-03-01T06:52:04.332Z,86.125
2023-03-01T06:57:04.124Z,86.33203
2023-03-01T07:02:02.552Z,86.27734
2023-03-01T07:07:02.468Z,86.09082
2023-03-01T07:12:02.972Z,86.04785
2023-03-01T07:17:02.412Z,85.8584
2023-03-01T07:22:02.341Z,86.11035
2023-03-01T07:27:02.658Z,85.89648
2023-03-01T07:32:02.459Z,86.05664
2023-03-01T07:37:02.537Z,85.96973
2023-03-01T07:42:02.934Z,86.2207
2023-03-01T07:47:02.574Z,85.98242
2023-03-01T07:52:05.406Z,86.06348
2023-03-01T07:57:02.593Z,85.89648
2023-03-01T08:02:02.473Z,85.95508
2023-03-01T08:07:02.451Z,86.45117
2023-03-01T08:12:05.323Z,86.27051
2023-03-01T08:17:03.626Z,86.65918
2023-03-01T08:22:02.422Z,85.29102
2023-03-01T08:27:03.569Z,83.12207
2023-03-01T08:32:03.457Z,82.29785
2023-03-01T08:37:02.309Z,82.18164
2023-03-01T08:42:09.145Z,82.02051
2023-03-01T08:47:03.045Z,81.73242
2023-03-01T08:52:03.072Z,81.90039
2023-03-01T08:57:04.448Z,81.51367
2023-03-01T09:02:02.550Z,81.33984
2023-03-01T09:07:02.253Z,81.47266
2023-03-01T09:12:02.509Z,81.2998
2023-03-01T09:17:03.722Z,81.13965
2023-03-01T09:22:02.510Z,80.80273
2023-03-01T09:27:05.666Z,81.05859
2023-03-01T09:32:11.465Z,81.21387
2023-03-01T09:37:05.389Z,81.27637
2023-03-01T09:42:05.309Z,80.98145
2023-03-01T09:47:04.901Z,80.44043
2023-03-01T09:52:10.638Z,79.91895
2023-03-01T09:57:09.928Z,77.97461
2023-03-01T10:02:04.542Z,78.03711
2023-03-01T10:07:09.814Z,77.31348
2023-03-01T10:12:03.017Z,76.06543
2023-03-01T10:17:03.630Z,75.54395
2023-03-01T10:22:05.794Z,75.50879
2023-03-01T10:27:06.344Z,74.1582
2023-03-01T10:32:05.413Z,73.00879
2023-03-01T10:37:05.769Z,72.67285
2023-03-01T10:42:06.854Z,71.71973
2023-03-01T10:47:17.730Z,71.46094
2023-03-01T10:52:12.351Z,72.42285
2023-03-01T10:57:06.436Z,71.75586
2023-03-01T11:02:25.548Z,70.79297
2023-03-01T11:07:06.537Z,70.4375
2023-03-01T11:12:04.552Z,70.57227
2023-03-01T11:17:09.811Z,72.12305
2023-03-01T11:22:06.920Z,69.6748
2023-03-01T11:27:04.775Z,69.68164
2023-03-01T11:32:07.256Z,72.80566
2023-03-01T11:37:04.721Z,71.43848
2023-03-01T11:42:18.181Z,71.70215
2023-03-01T11:47:13.453Z,71.66602
2023-03-01T11:52:07.169Z,79.55371
2023-03-01T11:57:05.941Z,72.12988
2023-03-01T12:02:18.341Z,72.54297
2023-03-01T12:07:05.007Z,72.30957
2023-03-01T12:12:11.351Z,69.22949
2023-03-01T12:17:07.068Z,70.45703
2023-03-01T12:22:10.652Z,71.17676
2023-03-01T12:27:11.894Z,71.46582
2023-03-01T12:32:25.828Z,70.53516
2023-03-01T12:37:09.217Z,70.68066
2023-03-01T12:42:07.365Z,71.09375
2023-03-01T12:47:11.048Z,74.25391
2023-03-01T12:52:07.807Z,73.2666
2023-03-01T12:57:04.847Z,79.88379
2023-03-01T13:02:06.824Z,76.74316
2023-03-01T13:07:16.120Z,74.5918
2023-03-01T13:12:04.387Z,71.7832
2023-03-01T13:17:02.431Z,81.08691
2023-03-01T13:22:02.693Z,77.53711
2023-03-01T13:27:13.788Z,74.54785
2023-03-01T13:32:05.575Z,74.87891
2023-03-01T13:37:12.212Z,72.51074
2023-03-01T13:42:02.513Z,70.76074
2023-03-01T13:47:03.625Z,71.7168
2023-03-01T13:52:02.372Z,72.35938
2023-03-01T13:57:04.863Z,73.20898
2023-03-01T14:02:03.109Z,70.66016
2023-03-01T14:07:13.337Z,71.17578
2023-03-01T14:12:17.754Z,71.75684
2023-03-01T14:17:08.482Z,71.51563
2023-03-01T14:22:20.334Z,72.07324
2023-03-01T14:27:06.591Z,70.94434
2023-03-01T14:32:12.681Z,73.04102
2023-03-01T14:37:12.313Z,71.30664
2023-03-01T14:42:14.963Z,73.72949
2023-03-01T14:47:02.965Z,71.2627
2023-03-01T14:52:04.581Z,71.25684
2023-03-01T14:57:04.055Z,71.35352
2023-03-01T15:02:02.853Z,72.01367
2023-03-01T15:07:05.941Z,73.79395
2023-03-01T15:12:02.454Z,72.88281
2023-03-01T15:17:02.217Z,72.42871
2023-03-01T15:22:12.209Z,73.24219
2023-03-01T15:27:07.426Z,72.80078
2023-03-01T15:32:04.601Z,73.72559
2023-03-01T15:37:03.108Z,73.87598
2023-03-01T15:42:05.410Z,76.83594
2023-03-01T15:47:03.653Z,72.82129
2023-03-01T15:52:02.504Z,72.98145
2023-03-01T15:57:02.347Z,72.39551
2023-03-01T16:02:02.267Z,71.43652
2023-03-01T16:07:02.431Z,70.80566
2023-03-01T16:12:02.525Z,71.27637
2023-03-01T16:17:02.334Z,71.6377
2023-03-01T16:22:03.314Z,70.78809
2023-03-01T16:27:02.240Z,71.84766
2023-03-01T16:32:04.667Z,73.93457
2023-03-01T16:37:02.274Z,75.21289
2023-03-01T16:42:07.405Z,76.59375
2023-03-01T16:47:02.315Z,76.72461
2023-03-01T16:52:02.254Z,77.57715
2023-03-01T16:57:02.596Z,78.21973
2023-03-01T17:02:02.371Z,78.76953
2023-03-01T17:07:04.557Z,78.99512
2023-03-01T17:12:02.222Z,79.88574
2023-03-01T17:17:03.262Z,81.12598
2023-03-01T17:22:04.392Z,81.34961
2023-03-01T17:27:02.395Z,82.00781
2023-03-01T17:32:02.410Z,81.64648
2023-03-01T17:37:05.450Z,82.19336
2023-03-01T17:42:02.471Z,82.5498
2023-03-01T17:47:02.232Z,82.48242
2023-03-01T17:52:02.539Z,82.44336
2023-03-01T17:57:02.776Z,82.55469
2023-03-01T18:02:02.585Z,82.52051
2023-03-01T18:07:02.306Z,82.78223
2023-03-01T18:12:02.259Z,82.54492
2023-03-01T18:17:04.163Z,82.40918
2023-03-01T18:22:02.248Z,81.79785
2023-03-01T18:27:04.039Z,82.27246
2023-03-01T18:32:05.149Z,82.03223
2023-03-01T18:37:14.340Z,82.07422
2023-03-01T18:42:03.712Z,82.03711
2023-03-01T18:47:31.377Z,82.2832
2023-03-01T18:52:02.282Z,82.30957
2023-03-01T18:57:02.974Z,82.79102
2023-03-01T19:02:09.026Z,82.72461
2023-03-01T19:07:02.391Z,82.90332
2023-03-01T19:12:03.403Z,82.92285
2023-03-01T19:17:02.197Z,83.35645
2023-03-01T19:22:06.096Z,83.26465
2023-03-01T19:27:04.851Z,83.7627
2023-03-01T19:32:03.516Z,83.42578
2023-03-01T19:37:02.114Z,83.42285
2023-03-01T19:42:05.036Z,83.62793
2023-03-01T19:47:02.290Z,83.87598
2023-03-01T19:52:02.809Z,83.62793
2023-03-01T19:57:02.196Z,83.95605
2023-03-01T20:02:04.496Z,83.8877
2023-03-01T20:07:02.277Z,84.00488
2023-03-01T20:12:02.137Z,84.34863
2023-03-01T20:17:02.279Z,84.22559
2023-03-01T20:22:03.286Z,84.25293
2023-03-01T20:27:02.535Z,84.34863
2023-03-01T20:32:04.949Z,84.38379
2023-03-01T20:37:04.465Z,84.51367
2023-03-01T20:42:02.207Z,84.61719
2023-03-01T20:47:05.562Z,84.59375
2023-03-01T20:52:02.230Z,84.85547
2023-03-01T20:57:02.594Z,84.9209
2023-03-01T21:02:04.900Z,84.91309
2023-03-01T21:07:02.710Z,85.11426
2023-03-01T21:12:03.987Z,85.08887
2023-03-01T21:17:02.389Z,85.07129
2023-03-01T21:22:02.235Z,85.26465
2023-03-01T21:27:06.271Z,85.125
2023-03-01T21:32:04.528Z,85.3457
2023-03-01T21:37:04.924Z,85.34961
2023-03-01T21:42:03.798Z,85.50098
2023-03-01T21:47:02.745Z,85.56445
2023-03-01T21:52:02.283Z,85.77734
2023-03-01T21:57:02.138Z,85.93164
2023-03-01T22:02:14.647Z,86.13281
2023-03-01T22:07:03.543Z,86.31641
2023-03-01T22:12:10.116Z,86.12305
2023-03-01T22:17:02.362Z,86.47363
2023-03-01T22:22:05.228Z,86.92676
2023-03-01T22:27:02.244Z,86.65039
2023-03-01T22:32:03.069Z,86.75879
2023-03-01T22:37:06.639Z,86.85352
2023-03-01T22:42:03.827Z,86.96777
2023-03-01T22:47:02.221Z,87.08691
2023-03-01T22:52:02.208Z,87.01465
2023-03-01T22:57:02.220Z,87.57715
2023-03-01T23:02:02.589Z,87.56445
2023-03-01T23:07:02.162Z,87.40918
2023-03-01T23:12:07.270Z,87.21777
2023-03-01T23:17:03.763Z,87.39844
2023-03-01T23:22:04.655Z,87.55469
2023-03-01T23:27:03.347Z,87.29004
2023-03-01T23:32:03.144Z,87.5752
2023-03-01T23:37:03.041Z,87.62988
2023-03-01T23:42:03.233Z,88.11719
2023-03-01T23:47:03.216Z,88.13477
2023-03-01T23:52:02.175Z,88.62012
2023-03-01T23:57:02.811Z,88.18555
